Fairhope, AL

12:54 PM CDT on August 20, 2017 (GMT -0500)
Fairhope | | Change Station

Elev 92 ft 30.46 °N, 87.88 °W | Updated 19 minutes ago

Scattered Clouds
Scattered Clouds
90 °F
Feels Like 102 °F
N
0
Wind Variable Wind from North

Today
High -- | Low -- °F
--% Chance of Precip.
Yesterday
High -- | Low -- °F
Precip. -- in
Pressure 30.05 in
Visibility 10.0 miles
Clouds Scattered Clouds 3600 ft
Scattered Clouds 4600 ft
Heat Index 102 °F
Dew Point 77 °F
Humidity 66%
Rainfall 0.00 in
Snow Depth Not available.
6:21 AM 7:27 PM
Waning Crescent, 1% visible
METAR KCQF 201735Z AUTO 00000KT 10SM SCT036 SCT046 32/25 A3005 RMK AO2
Pressure 30.05 in
Visibility 10.0 miles
Clouds Scattered Clouds 3600 ft
Scattered Clouds 4600 ft
Heat Index 102 °F
Dew Point 77 °F
Humidity 66%
Rainfall 0.00 in
Snow Depth Not available.
6:21 AM 7:27 PM
Waning Crescent, 1% visible
METAR KCQF 201735Z AUTO 00000KT 10SM SCT036 SCT046 32/25 A3005 RMK AO2

Get Severe Weather Alerts

Thanks for signing up!

Be on the lookout for a verification email in your inbox.

You'll start receiving the daily forecast at 6 AM.

×

10-Day Weather Forecast

Almanac

Astronomy

Aug. 20, 2017 Rise Set
Actual Time
Civil Twilight
Nautical Twilight
Astronomical Twilight
Moon
Length of Visible Light
Length of Day
Tomorrow will be .
, % of the Moon is Illuminated

Today's Extremes

State Highs State Lows

Community

WunderPhotos

Category 6

Welcome to Category 6. This is the collective home for Weather Underground's featured writeups by Dr. Jeff Masters (right), Bob Henson (left), Chris Burt, and other regular contributors.

Nearby

Air Quality

  Air Quality AQ Index Pollutant
Not available.

Snow Depth

Station Depth Elevation

Earthquake Activity

City Distance Mag. Time & Date
Minimum magnitude displayed is 2.5.

Coastal Water Temperatures

Place Temperature

Stations

Nearby Weather Stations

Station Location Temp. Windchill Dew Point Humidity Wind Precip. Elev Updated Type
                   

Watches & Warnings

There are currently no watches in effect.